sensor_id;sensor_type;location;lat;lon;timestamp;P1;P2;P0
76049;PMS7003;64967;50.234;19.224;2023-02-22T00:01:32;20.75;17.50;13.25
76049;PMS7003;64967;50.234;19.224;2023-02-22T00:04:16;21.00;17.50;13.50
76049;PMS7003;64967;50.234;19.224;2023-02-22T00:06:47;23.75;20.25;15.00
76049;PMS7003;64967;50.234;19.224;2023-02-22T00:09:15;15.75;13.00;9.25
76049;PMS7003;64967;50.234;19.224;2023-02-22T00:11:47;25.25;24.50;19.50
76049;PMS7003;64967;50.234;19.224;2023-02-22T00:14:14;25.25;16.25;12.25
76049;PMS7003;64967;50.234;19.224;2023-02-22T00:16:45;16.00;15.00;10.75
76049;PMS7003;64967;50.234;19.224;2023-02-22T00:19:12;11.50;9.50;6.50
76049;PMS7003;64967;50.234;19.224;2023-02-22T00:21:39;11.25;9.00;7.00
76049;PMS7003;64967;50.234;19.224;2023-02-22T00:24:06;7.00;4.25;3.00
76049;PMS7003;64967;50.234;19.224;2023-02-22T00:26:49;16.00;11.75;7.25
76049;PMS7003;64967;50.234;19.224;2023-02-22T00:29:17;25.75;20.00;12.25
76049;PMS7003;64967;50.234;19.224;2023-02-22T00:31:44;15.00;12.00;10.00
76049;PMS7003;64967;50.234;19.224;2023-02-22T00:34:12;11.50;10.00;7.00
76049;PMS7003;64967;50.234;19.224;2023-02-22T00:36:49;7.75;6.25;5.25
76049;PMS7003;64967;50.234;19.224;2023-02-22T00:39:16;12.50;7.00;5.00
76049;PMS7003;64967;50.234;19.224;2023-02-22T00:41:43;7.25;6.00;5.00
76049;PMS7003;64967;50.234;19.224;2023-02-22T00:44:10;6.00;6.00;5.00
76049;PMS7003;64967;50.234;19.224;2023-02-22T00:46:37;7.00;5.50;2.25
76049;PMS7003;64967;50.234;19.224;2023-02-22T00:49:05;6.00;3.00;2.50
76049;PMS7003;64967;50.234;19.224;2023-02-22T00:51:32;8.75;7.25;5.00
76049;PMS7003;64967;50.234;19.224;2023-02-22T00:53:59;11.75;7.00;6.00
76049;PMS7003;64967;50.234;19.224;2023-02-22T00:56:26;8.75;7.00;3.00
76049;PMS7003;64967;50.234;19.224;2023-02-22T00:58:54;5.50;5.00;3.50
76049;PMS7003;64967;50.234;19.224;2023-02-22T01:01:21;6.75;6.00;4.50
76049;PMS7003;64967;50.234;19.224;2023-02-22T01:03:49;8.00;7.00;6.25
76049;PMS7003;64967;50.234;19.224;2023-02-22T01:06:16;4.25;4.00;2.50
76049;PMS7003;64967;50.234;19.224;2023-02-22T01:08:44;5.00;5.00;4.00
76049;PMS7003;64967;50.234;19.224;2023-02-22T01:11:13;6.00;5.75;4.75
76049;PMS7003;64967;50.234;19.224;2023-02-22T01:13:42;7.75;6.75;5.50
76049;PMS7003;64967;50.234;19.224;2023-02-22T01:16:10;3.00;2.25;1.50
76049;PMS7003;64967;50.234;19.224;2023-02-22T01:18:38;3.00;2.75;2.50
76049;PMS7003;64967;50.234;19.224;2023-02-22T01:21:05;3.00;2.00;2.00
76049;PMS7003;64967;50.234;19.224;2023-02-22T01:23:32;3.75;2.00;2.00
76049;PMS7003;64967;50.234;19.224;2023-02-22T01:25:59;2.25;2.00;2.00
76049;PMS7003;64967;50.234;19.224;2023-02-22T01:28:26;4.25;2.50;2.00
76049;PMS7003;64967;50.234;19.224;2023-02-22T01:30:54;5.50;5.00;3.00
76049;PMS7003;64967;50.234;19.224;2023-02-22T01:33:22;2.50;2.50;2.00
76049;PMS7003;64967;50.234;19.224;2023-02-22T01:35:48;5.50;5.00;4.00
76049;PMS7003;64967;50.234;19.224;2023-02-22T01:38:17;4.00;2.75;2.50
76049;PMS7003;64967;50.234;19.224;2023-02-22T01:40:46;3.00;3.00;2.00
76049;PMS7003;64967;50.234;19.224;2023-02-22T01:43:21;2.00;1.00;1.00
76049;PMS7003;64967;50.234;19.224;2023-02-22T01:48:28;2.00;2.00;2.00
76049;PMS7003;64967;50.234;19.224;2023-02-22T01:54:00;3.00;2.00;2.00
76049;PMS7003;64967;50.234;19.224;2023-02-22T01:56:36;5.00;4.00;2.50
76049;PMS7003;64967;50.234;19.224;2023-02-22T01:59:08;2.50;2.00;1.25
76049;PMS7003;64967;50.234;19.224;2023-02-22T02:01:38;5.50;5.25;5.00
76049;PMS7003;64967;50.234;19.224;2023-02-22T02:04:09;3.00;2.75;1.75
76049;PMS7003;64967;50.234;19.224;2023-02-22T02:06:41;3.50;2.75;1.50
76049;PMS7003;64967;50.234;19.224;2023-02-22T02:09:25;5.00;2.25;1.75
76049;PMS7003;64967;50.234;19.224;2023-02-22T02:12:26;3.25;2.75;2.00
76049;PMS7003;64967;50.234;19.224;2023-02-22T02:15:25;4.00;4.00;3.50
76049;PMS7003;64967;50.234;19.224;2023-02-22T02:18:11;8.00;7.00;6.50
76049;PMS7003;64967;50.234;19.224;2023-02-22T02:32:53;7.00;5.00;3.00
76049;PMS7003;64967;50.234;19.224;2023-02-22T02:41:09;9.00;7.00;5.50
76049;PMS7003;64967;50.234;19.224;2023-02-22T02:43:46;6.50;6.25;5.50
76049;PMS7003;64967;50.234;19.224;2023-02-22T02:48:58;8.50;4.50;2.50
76049;PMS7003;64967;50.234;19.224;2023-02-22T02:51:33;6.00;4.00;3.00
76049;PMS7003;64967;50.234;19.224;2023-02-22T02:54:04;5.00;4.50;3.00
76049;PMS7003;64967;50.234;19.224;2023-02-22T02:56:33;5.75;5.75;5.00
76049;PMS7003;64967;50.234;19.224;2023-02-22T02:59:00;8.75;6.25;5.25
76049;PMS7003;64967;50.234;19.224;2023-02-22T03:07:42;5.50;3.25;2.00
76049;PMS7003;64967;50.234;19.224;2023-02-22T03:18:33;16.25;9.25;6.25
76049;PMS7003;64967;50.234;19.224;2023-02-22T03:21:32;11.25;9.00;6.00
76049;PMS7003;64967;50.234;19.224;2023-02-22T03:24:19;14.00;13.50;10.00
76049;PMS7003;64967;50.234;19.224;2023-02-22T03:26:56;17.25;14.50;10.50
76049;PMS7003;64967;50.234;19.224;2023-02-22T03:29:30;28.33;24.33;18.67
76049;PMS7003;64967;50.234;19.224;2023-02-22T03:32:01;18.25;15.50;11.00
76049;PMS7003;64967;50.234;19.224;2023-02-22T03:34:34;16.75;16.75;11.50
76049;PMS7003;64967;50.234;19.224;2023-02-22T03:37:09;5.25;3.00;3.00
76049;PMS7003;64967;50.234;19.224;2023-02-22T03:39:42;10.50;7.00;4.75
76049;PMS7003;64967;50.234;19.224;2023-02-22T03:42:23;9.50;8.50;5.75
76049;PMS7003;64967;50.234;19.224;2023-02-22T03:44:56;6.00;4.00;4.00
76049;PMS7003;64967;50.234;19.224;2023-02-22T03:47:30;9.00;9.00;6.00
76049;PMS7003;64967;50.234;19.224;2023-02-22T03:50:10;8.75;6.00;3.50
76049;PMS7003;64967;50.234;19.224;2023-02-22T03:52:41;9.75;6.00;5.50
76049;PMS7003;64967;50.234;19.224;2023-02-22T03:55:10;5.25;5.00;2.75
76049;PMS7003;64967;50.234;19.224;2023-02-22T03:57:40;9.25;7.50;6.75
76049;PMS7003;64967;50.234;19.224;2023-02-22T04:00:17;6.50;5.00;3.00
76049;PMS7003;64967;50.234;19.224;2023-02-22T04:02:48;6.50;5.25;3.50
76049;PMS7003;64967;50.234;19.224;2023-02-22T04:09:15;10.00;6.75;5.75
76049;PMS7003;64967;50.234;19.224;2023-02-22T04:11:43;9.50;8.00;5.75
76049;PMS7003;64967;50.234;19.224;2023-02-22T04:14:11;4.00;3.00;2.50
76049;PMS7003;64967;50.234;19.224;2023-02-22T04:16:39;10.25;6.50;6.00
76049;PMS7003;64967;50.234;19.224;2023-02-22T04:19:06;9.25;9.00;7.00
76049;PMS7003;64967;50.234;19.224;2023-02-22T04:21:33;5.75;5.00;3.00
76049;PMS7003;64967;50.234;19.224;2023-02-22T04:24:00;3.00;3.00;3.00
76049;PMS7003;64967;50.234;19.224;2023-02-22T04:26:27;12.00;6.00;5.00
76049;PMS7003;64967;50.234;19.224;2023-02-22T04:28:54;11.25;9.50;8.00
76049;PMS7003;64967;50.234;19.224;2023-02-22T04:31:21;10.00;8.25;7.25
76049;PMS7003;64967;50.234;19.224;2023-02-22T04:33:48;12.00;11.00;7.75
76049;PMS7003;64967;50.234;19.224;2023-02-22T04:36:15;15.75;12.25;10.25
76049;PMS7003;64967;50.234;19.224;2023-02-22T04:38:42;9.75;8.00;5.75
76049;PMS7003;64967;50.234;19.224;2023-02-22T04:41:09;6.25;5.75;5.25
76049;PMS7003;64967;50.234;19.224;2023-02-22T04:43:36;12.50;9.50;7.75
76049;PMS7003;64967;50.234;19.224;2023-02-22T04:46:04;9.75;6.75;5.75
76049;PMS7003;64967;50.234;19.224;2023-02-22T04:48:31;9.50;8.50;6.00
76049;PMS7003;64967;50.234;19.224;2023-02-22T04:50:58;7.00;6.00;5.25
76049;PMS7003;64967;50.234;19.224;2023-02-22T04:53:25;11.00;10.50;9.50
76049;PMS7003;64967;50.234;19.224;2023-02-22T04:55:52;9.50;7.00;6.75
76049;PMS7003;64967;50.234;19.224;2023-02-22T04:58:19;22.25;15.50;12.25
76049;PMS7003;64967;50.234;19.224;2023-02-22T05:00:46;12.00;12.00;11.00
76049;PMS7003;64967;50.234;19.224;2023-02-22T05:03:13;8.25;7.00;6.25
76049;PMS7003;64967;50.234;19.224;2023-02-22T05:05:40;19.00;17.00;11.50
76049;PMS7003;64967;50.234;19.224;2023-02-22T05:08:07;20.50;18.50;15.75
76049;PMS7003;64967;50.234;19.224;2023-02-22T05:10:34;18.00;14.50;11.25
76049;PMS7003;64967;50.234;19.224;2023-02-22T05:13:01;11.75;10.25;9.25
76049;PMS7003;64967;50.234;19.224;2023-02-22T05:15:29;15.75;14.00;11.00
76049;PMS7003;64967;50.234;19.224;2023-02-22T05:17:56;8.50;7.00;5.00
76049;PMS7003;64967;50.234;19.224;2023-02-22T05:20:27;9.75;9.50;7.00
76049;PMS7003;64967;50.234;19.224;2023-02-22T05:22:54;13.25;10.00;8.50
76049;PMS7003;64967;50.234;19.224;2023-02-22T05:25:25;37.00;30.67;22.00
76049;PMS7003;64967;50.234;19.224;2023-02-22T05:27:54;67.00;53.67;34.67
76049;PMS7003;64967;50.234;19.224;2023-02-22T05:30:28;62.33;46.00;29.00
76049;PMS7003;64967;50.234;19.224;2023-02-22T05:32:57;54.00;38.33;25.33
76049;PMS7003;64967;50.234;19.224;2023-02-22T05:35:25;58.33;41.33;29.00
76049;PMS7003;64967;50.234;19.224;2023-02-22T05:37:54;39.00;33.00;24.00
76049;PMS7003;64967;50.234;19.224;2023-02-22T05:40:22;44.00;35.67;26.00
76049;PMS7003;64967;50.234;19.224;2023-02-22T05:42:52;33.67;30.67;22.33
76049;PMS7003;64967;50.234;19.224;2023-02-22T05:45:20;30.00;18.25;12.00
76049;PMS7003;64967;50.234;19.224;2023-02-22T05:47:49;40.00;31.33;21.33
76049;PMS7003;64967;50.234;19.224;2023-02-22T05:50:17;62.67;47.00;31.00
76049;PMS7003;64967;50.234;19.224;2023-02-22T05:52:45;62.00;45.33;28.33
76049;PMS7003;64967;50.234;19.224;2023-02-22T05:55:14;43.67;38.00;24.00
76049;PMS7003;64967;50.234;19.224;2023-02-22T05:57:43;34.67;30.00;18.00
76049;PMS7003;64967;50.234;19.224;2023-02-22T06:00:13;36.67;35.67;23.33
76049;PMS7003;64967;50.234;19.224;2023-02-22T06:02:43;34.67;30.00;21.33
76049;PMS7003;64967;50.234;19.224;2023-02-22T06:05:11;24.33;22.00;14.67
76049;PMS7003;64967;50.234;19.224;2023-02-22T06:07:37;21.75;18.75;9.75
76049;PMS7003;64967;50.234;19.224;2023-02-22T06:10:04;17.75;14.50;11.00
76049;PMS7003;64967;50.234;19.224;2023-02-22T06:12:32;21.75;18.25;12.00
76049;PMS7003;64967;50.234;19.224;2023-02-22T06:14:58;43.67;37.00;24.00
76049;PMS7003;64967;50.234;19.224;2023-02-22T06:17:25;31.33;25.33;17.67
76049;PMS7003;64967;50.234;19.224;2023-02-22T06:19:52;30.75;22.50;15.00
76049;PMS7003;64967;50.234;19.224;2023-02-22T06:22:19;17.00;14.50;7.25
76049;PMS7003;64967;50.234;19.224;2023-02-22T06:24:46;35.67;30.33;23.33
76049;PMS7003;64967;50.234;19.224;2023-02-22T06:27:13;28.25;24.00;18.00
76049;PMS7003;64967;50.234;19.224;2023-02-22T06:29:43;15.75;14.00;10.75
76049;PMS7003;64967;50.234;19.224;2023-02-22T06:32:12;18.75;16.50;13.25
76049;PMS7003;64967;50.234;19.224;2023-02-22T06:34:40;30.25;22.25;16.00
76049;PMS7003;64967;50.234;19.224;2023-02-22T06:37:07;23.00;22.50;16.00
76049;PMS7003;64967;50.234;19.224;2023-02-22T06:39:34;10.00;10.00;8.25
76049;PMS7003;64967;50.234;19.224;2023-02-22T06:42:01;15.25;13.50;11.00
76049;PMS7003;64967;50.234;19.224;2023-02-22T06:44:28;27.75;23.75;16.00
76049;PMS7003;64967;50.234;19.224;2023-02-22T06:46:55;26.00;17.50;13.50
76049;PMS7003;64967;50.234;19.224;2023-02-22T06:49:22;24.00;21.00;14.75
76049;PMS7003;64967;50.234;19.224;2023-02-22T06:51:49;15.50;12.00;8.25
76049;PMS7003;64967;50.234;19.224;2023-02-22T06:54:16;10.00;8.50;7.00
76049;PMS7003;64967;50.234;19.224;2023-02-22T06:56:43;9.25;6.00;6.00
76049;PMS7003;64967;50.234;19.224;2023-02-22T06:59:10;11.00;9.75;8.75
76049;PMS7003;64967;50.234;19.224;2023-02-22T07:01:40;6.25;4.50;2.75
76049;PMS7003;64967;50.234;19.224;2023-02-22T07:04:08;5.25;4.50;3.50
76049;PMS7003;64967;50.234;19.224;2023-02-22T07:06:35;6.75;5.50;4.00
76049;PMS7003;64967;50.234;19.224;2023-02-22T07:09:02;8.50;6.00;5.00
76049;PMS7003;64967;50.234;19.224;2023-02-22T07:11:29;8.25;8.25;6.00
76049;PMS7003;64967;50.234;19.224;2023-02-22T07:13:57;12.75;12.50;11.25
76049;PMS7003;64967;50.234;19.224;2023-02-22T07:16:23;6.50;5.50;4.00
76049;PMS7003;64967;50.234;19.224;2023-02-22T07:18:50;7.00;6.00;4.50
76049;PMS7003;64967;50.234;19.224;2023-02-22T07:21:17;5.00;4.50;4.00
76049;PMS7003;64967;50.234;19.224;2023-02-22T07:23:51;1.00;1.00;1.00
76049;PMS7003;64967;50.234;19.224;2023-02-22T07:26:20;5.00;5.00;4.50
76049;PMS7003;64967;50.234;19.224;2023-02-22T07:28:48;5.25;4.00;3.50
76049;PMS7003;64967;50.234;19.224;2023-02-22T07:31:16;4.00;3.25;2.00
76049;PMS7003;64967;50.234;19.224;2023-02-22T07:33:46;3.50;3.00;2.25
76049;PMS7003;64967;50.234;19.224;2023-02-22T07:36:14;2.00;0.00;0.00
76049;PMS7003;64967;50.234;19.224;2023-02-22T07:38:43;5.25;4.25;3.25
76049;PMS7003;64967;50.234;19.224;2023-02-22T07:41:11;5.75;5.75;4.00
76049;PMS7003;64967;50.234;19.224;2023-02-22T07:43:38;7.00;6.50;5.00
76049;PMS7003;64967;50.234;19.224;2023-02-22T07:46:05;10.25;7.00;6.25
76049;PMS7003;64967;50.234;19.224;2023-02-22T07:48:32;6.00;4.75;3.50
76049;PMS7003;64967;50.234;19.224;2023-02-22T07:50:59;12.00;11.00;8.00
76049;PMS7003;64967;50.234;19.224;2023-02-22T07:53:28;17.75;13.00;9.50
76049;PMS7003;64967;50.234;19.224;2023-02-22T07:55:57;11.00;9.25;7.50
76049;PMS7003;64967;50.234;19.224;2023-02-22T07:58:25;10.00;8.75;7.75
76049;PMS7003;64967;50.234;19.224;2023-02-22T08:00:53;11.75;11.25;8.50
76049;PMS7003;64967;50.234;19.224;2023-02-22T08:03:22;9.50;7.50;6.25
76049;PMS7003;64967;50.234;19.224;2023-02-22T08:05:52;8.50;6.75;6.00
76049;PMS7003;64967;50.234;19.224;2023-02-22T08:08:22;6.50;5.00;4.00
76049;PMS7003;64967;50.234;19.224;2023-02-22T08:10:50;33.50;26.50;20.50
76049;PMS7003;64967;50.234;19.224;2023-02-22T08:13:18;29.25;20.00;16.00
76049;PMS7003;64967;50.234;19.224;2023-02-22T08:15:49;13.00;11.00;10.00
76049;PMS7003;64967;50.234;19.224;2023-02-22T08:18:17;12.00;11.00;9.50
76049;PMS7003;64967;50.234;19.224;2023-02-22T08:20:46;14.25;13.25;11.00
76049;PMS7003;64967;50.234;19.224;2023-02-22T08:23:15;10.25;8.00;6.25
76049;PMS7003;64967;50.234;19.224;2023-02-22T08:25:43;10.50;7.75;6.00
76049;PMS7003;64967;50.234;19.224;2023-02-22T08:28:12;10.25;7.50;6.00
76049;PMS7003;64967;50.234;19.224;2023-02-22T08:30:41;31.25;25.00;18.50
76049;PMS7003;64967;50.234;19.224;2023-02-22T08:33:12;25.25;19.75;15.00
76049;PMS7003;64967;50.234;19.224;2023-02-22T08:35:42;19.00;16.00;13.00
76049;PMS7003;64967;50.234;19.224;2023-02-22T08:38:16;12.00;10.00;7.00
76049;PMS7003;64967;50.234;19.224;2023-02-22T08:40:49;25.00;20.00;16.00
76049;PMS7003;64967;50.234;19.224;2023-02-22T08:43:17;16.00;13.00;9.25
76049;PMS7003;64967;50.234;19.224;2023-02-22T08:45:45;12.75;12.00;8.00
76049;PMS7003;64967;50.234;19.224;2023-02-22T08:48:13;16.50;12.50;8.50
76049;PMS7003;64967;50.234;19.224;2023-02-22T08:50:41;50.50;39.75;24.00
76049;PMS7003;64967;50.234;19.224;2023-02-22T08:53:10;30.50;26.25;16.50
76049;PMS7003;64967;50.234;19.224;2023-02-22T08:55:39;36.75;31.25;21.00
76049;PMS7003;64967;50.234;19.224;2023-02-22T08:58:07;21.50;18.25;13.25
76049;PMS7003;64967;50.234;19.224;2023-02-22T09:00:35;22.00;17.25;12.50
76049;PMS7003;64967;50.234;19.224;2023-02-22T09:03:08;14.25;13.25;9.75
76049;PMS7003;64967;50.234;19.224;2023-02-22T09:05:38;13.25;8.75;7.75
76049;PMS7003;64967;50.234;19.224;2023-02-22T09:08:06;8.75;7.00;4.00
76049;PMS7003;64967;50.234;19.224;2023-02-22T09:10:34;17.50;12.50;8.00
76049;PMS7003;64967;50.234;19.224;2023-02-22T09:13:01;15.25;13.50;11.00
76049;PMS7003;64967;50.234;19.224;2023-02-22T09:15:30;22.25;17.50;13.00
76049;PMS7003;64967;50.234;19.224;2023-02-22T09:17:57;13.75;12.25;9.25
76049;PMS7003;64967;50.234;19.224;2023-02-22T09:20:24;20.25;15.75;11.25
76049;PMS7003;64967;50.234;19.224;2023-02-22T09:22:52;19.00;15.25;12.00
76049;PMS7003;64967;50.234;19.224;2023-02-22T09:25:20;12.00;9.50;8.00
76049;PMS7003;64967;50.234;19.224;2023-02-22T09:27:48;15.00;10.25;6.25
76049;PMS7003;64967;50.234;19.224;2023-02-22T09:30:25;14.50;11.75;8.00
76049;PMS7003;64967;50.234;19.224;2023-02-22T09:32:59;9.75;8.00;6.75
76049;PMS7003;64967;50.234;19.224;2023-02-22T09:35:28;9.00;6.75;6.25
76049;PMS7003;64967;50.234;19.224;2023-02-22T09:37:55;20.25;17.50;13.25
76049;PMS7003;64967;50.234;19.224;2023-02-22T09:40:23;22.50;20.50;15.00
76049;PMS7003;64967;50.234;19.224;2023-02-22T09:45:57;19.50;17.50;13.00
76049;PMS7003;64967;50.234;19.224;2023-02-22T09:51:31;24.50;21.75;14.50
76049;PMS7003;64967;50.234;19.224;2023-02-22T09:54:13;17.75;16.75;11.75
76049;PMS7003;64967;50.234;19.224;2023-02-22T09:56:50;17.50;13.00;7.75
76049;PMS7003;64967;50.234;19.224;2023-02-22T09:59:22;20.00;15.50;11.50
76049;PMS7003;64967;50.234;19.224;2023-02-22T10:01:59;31.50;24.25;16.75
76049;PMS7003;64967;50.234;19.224;2023-02-22T10:04:51;25.75;21.75;15.00
76049;PMS7003;64967;50.234;19.224;2023-02-22T10:07:37;14.75;13.50;9.50
76049;PMS7003;64967;50.234;19.224;2023-02-22T10:10:25;11.75;11.50;7.25
76049;PMS7003;64967;50.234;19.224;2023-02-22T10:13:04;9.25;7.75;6.25
76049;PMS7003;64967;50.234;19.224;2023-02-22T10:19:35;21.25;18.25;13.50
76049;PMS7003;64967;50.234;19.224;2023-02-22T10:27:20;18.75;14.25;9.00
76049;PMS7003;64967;50.234;19.224;2023-02-22T10:29:56;20.25;13.75;9.00
76049;PMS7003;64967;50.234;19.224;2023-02-22T10:33:50;26.00;21.75;14.00
76049;PMS7003;64967;50.234;19.224;2023-02-22T10:35:47;26.00;17.50;12.00
76049;PMS7003;64967;50.234;19.224;2023-02-22T10:38:27;14.00;12.00;9.00
76049;PMS7003;64967;50.234;19.224;2023-02-22T10:40:56;24.50;20.25;14.75
76049;PMS7003;64967;50.234;19.224;2023-02-22T10:43:37;21.75;18.75;12.50
76049;PMS7003;64967;50.234;19.224;2023-02-22T10:46:08;14.50;12.25;8.50
76049;PMS7003;64967;50.234;19.224;2023-02-22T10:48:41;14.00;10.25;7.25
76049;PMS7003;64967;50.234;19.224;2023-02-22T10:51:10;18.00;17.25;10.50
76049;PMS7003;64967;50.234;19.224;2023-02-22T10:53:39;19.00;16.25;13.00
76049;PMS7003;64967;50.234;19.224;2023-02-22T10:56:19;17.00;12.50;9.00
76049;PMS7003;64967;50.234;19.224;2023-02-22T10:58:49;8.00;7.75;4.00
76049;PMS7003;64967;50.234;19.224;2023-02-22T11:01:22;18.75;16.25;10.25
76049;PMS7003;64967;50.234;19.224;2023-02-22T11:06:44;16.75;13.75;9.75
76049;PMS7003;64967;50.234;19.224;2023-02-22T11:09:17;13.25;8.00;6.00
76049;PMS7003;64967;50.234;19.224;2023-02-22T11:11:50;12.25;8.50;7.00
76049;PMS7003;64967;50.234;19.224;2023-02-22T11:14:33;11.00;8.00;5.00
76049;PMS7003;64967;50.234;19.224;2023-02-22T11:17:00;19.00;12.75;9.50
76049;PMS7003;64967;50.234;19.224;2023-02-22T11:19:34;15.25;15.25;11.25
76049;PMS7003;64967;50.234;19.224;2023-02-22T11:24:31;9.75;8.50;7.00
76049;PMS7003;64967;50.234;19.224;2023-02-22T11:35:33;13.00;12.00;10.00
76049;PMS7003;64967;50.234;19.224;2023-02-22T11:38:11;13.00;10.25;8.00
76049;PMS7003;64967;50.234;19.224;2023-02-22T11:40:41;11.00;9.25;5.25
76049;PMS7003;64967;50.234;19.224;2023-02-22T11:43:17;13.25;8.00;6.75
76049;PMS7003;64967;50.234;19.224;2023-02-22T11:46:46;15.00;12.00;8.00
76049;PMS7003;64967;50.234;19.224;2023-02-22T11:48:54;21.25;17.75;13.25
76049;PMS7003;64967;50.234;19.224;2023-02-22T11:51:37;14.25;12.50;8.50
76049;PMS7003;64967;50.234;19.224;2023-02-22T11:57:10;10.75;9.50;7.00
76049;PMS7003;64967;50.234;19.224;2023-02-22T12:02:48;10.50;8.00;7.00
76049;PMS7003;64967;50.234;19.224;2023-02-22T12:11:24;6.25;4.75;3.75
76049;PMS7003;64967;50.234;19.224;2023-02-22T12:14:00;13.50;8.50;6.75
76049;PMS7003;64967;50.234;19.224;2023-02-22T12:16:33;12.00;10.50;8.00
76049;PMS7003;64967;50.234;19.224;2023-02-22T12:21:55;12.50;10.75;8.00
76049;PMS7003;64967;50.234;19.224;2023-02-22T12:24:33;18.25;15.25;12.00
76049;PMS7003;64967;50.234;19.224;2023-02-22T12:27:47;20.50;15.00;10.25
76049;PMS7003;64967;50.234;19.224;2023-02-22T12:30:21;16.25;13.50;9.75
76049;PMS7003;64967;50.234;19.224;2023-02-22T12:32:52;19.50;18.25;12.50
76049;PMS7003;64967;50.234;19.224;2023-02-22T12:38:23;20.50;17.00;11.00
76049;PMS7003;64967;50.234;19.224;2023-02-22T12:43:42;25.50;19.75;13.00
76049;PMS7003;64967;50.234;19.224;2023-02-22T12:46:20;20.50;19.00;13.00
76049;PMS7003;64967;50.234;19.224;2023-02-22T12:54:25;14.00;12.25;8.00
76049;PMS7003;64967;50.234;19.224;2023-02-22T13:00:01;17.25;15.00;11.00
76049;PMS7003;64967;50.234;19.224;2023-02-22T13:02:44;15.75;11.25;8.00
76049;PMS7003;64967;50.234;19.224;2023-02-22T13:05:38;15.00;11.50;8.00
76049;PMS7003;64967;50.234;19.224;2023-02-22T13:13:21;16.00;16.00;12.00
76049;PMS7003;64967;50.234;19.224;2023-02-22T13:18:59;25.00;17.00;12.50
76049;PMS7003;64967;50.234;19.224;2023-02-22T13:21:43;20.25;13.75;7.75
76049;PMS7003;64967;50.234;19.224;2023-02-22T13:27:09;16.00;14.25;11.50
76049;PMS7003;64967;50.234;19.224;2023-02-22T13:29:41;31.50;26.00;18.00
76049;PMS7003;64967;50.234;19.224;2023-02-22T13:35:13;29.75;20.25;14.25
76049;PMS7003;64967;50.234;19.224;2023-02-22T13:38:00;19.75;13.00;9.00
76049;PMS7003;64967;50.234;19.224;2023-02-22T13:41:05;23.00;15.50;12.50
76049;PMS7003;64967;50.234;19.224;2023-02-22T13:52:10;25.25;20.25;14.25
76049;PMS7003;64967;50.234;19.224;2023-02-22T13:54:47;22.00;18.00;13.25
76049;PMS7003;64967;50.234;19.224;2023-02-22T14:10:48;2.00;2.00;0.00
76049;PMS7003;64967;50.234;19.224;2023-02-22T14:13:21;15.00;12.00;8.25
76049;PMS7003;64967;50.234;19.224;2023-02-22T14:21:10;14.25;12.75;10.00
76049;PMS7003;64967;50.234;19.224;2023-02-22T14:29:01;15.00;12.75;8.00
76049;PMS7003;64967;50.234;19.224;2023-02-22T14:34:17;19.50;18.75;13.25
76049;PMS7003;64967;50.234;19.224;2023-02-22T14:39:39;16.50;12.50;9.00
76049;PMS7003;64967;50.234;19.224;2023-02-22T14:42:12;15.75;12.50;8.25
76049;PMS7003;64967;50.234;19.224;2023-02-22T14:47:30;18.50;17.75;13.25
76049;PMS7003;64967;50.234;19.224;2023-02-22T14:50:07;23.25;18.00;12.00
76049;PMS7003;64967;50.234;19.224;2023-02-22T14:52:42;15.25;15.25;12.00
76049;PMS7003;64967;50.234;19.224;2023-02-22T14:55:21;24.00;22.25;14.75
76049;PMS7003;64967;50.234;19.224;2023-02-22T14:58:12;16.75;12.75;9.00
76049;PMS7003;64967;50.234;19.224;2023-02-22T15:00:45;23.50;18.00;12.25
76049;PMS7003;64967;50.234;19.224;2023-02-22T15:03:30;18.00;15.25;11.00
76049;PMS7003;64967;50.234;19.224;2023-02-22T15:06:03;13.75;11.75;8.00
76049;PMS7003;64967;50.234;19.224;2023-02-22T15:08:41;13.00;10.50;8.00
76049;PMS7003;64967;50.234;19.224;2023-02-22T15:11:20;14.75;10.25;7.25
76049;PMS7003;64967;50.234;19.224;2023-02-22T15:13:56;7.25;4.50;3.25
76049;PMS7003;64967;50.234;19.224;2023-02-22T15:16:26;13.75;13.25;8.25
76049;PMS7003;64967;50.234;19.224;2023-02-22T15:18:58;72.33;58.67;40.00
76049;PMS7003;64967;50.234;19.224;2023-02-22T15:21:29;28.50;19.00;11.00
76049;PMS7003;64967;50.234;19.224;2023-02-22T15:23:58;19.25;18.25;14.75
76049;PMS7003;64967;50.234;19.224;2023-02-22T15:29:15;39.50;35.75;26.00
76049;PMS7003;64967;50.234;19.224;2023-02-22T15:31:45;14.25;14.25;10.00
76049;PMS7003;64967;50.234;19.224;2023-02-22T15:36:41;12.00;9.00;7.00
76049;PMS7003;64967;50.234;19.224;2023-02-22T15:39:18;8.00;7.00;5.75
76049;PMS7003;64967;50.234;19.224;2023-02-22T15:42:09;6.75;4.00;3.00
76049;PMS7003;64967;50.234;19.224;2023-02-22T15:44:45;7.00;6.00;4.00
76049;PMS7003;64967;50.234;19.224;2023-02-22T15:47:25;11.50;9.00;5.75
76049;PMS7003;64967;50.234;19.224;2023-02-22T15:50:16;8.25;7.00;4.50
76049;PMS7003;64967;50.234;19.224;2023-02-22T15:53:04;6.75;4.00;3.00
76049;PMS7003;64967;50.234;19.224;2023-02-22T15:55:33;4.00;4.00;3.00
76049;PMS7003;64967;50.234;19.224;2023-02-22T16:00:45;6.00;3.00;2.50
76049;PMS7003;64967;50.234;19.224;2023-02-22T16:03:18;6.25;4.75;3.00
76049;PMS7003;64967;50.234;19.224;2023-02-22T16:05:54;3.75;3.25;3.00
76049;PMS7003;64967;50.234;19.224;2023-02-22T16:08:23;6.00;6.00;4.00
76049;PMS7003;64967;50.234;19.224;2023-02-22T16:11:06;5.00;3.25;3.00
76049;PMS7003;64967;50.234;19.224;2023-02-22T16:13:41;5.00;3.50;2.00
76049;PMS7003;64967;50.234;19.224;2023-02-22T16:18:46;3.25;3.00;2.00
76049;PMS7003;64967;50.234;19.224;2023-02-22T16:21:16;4.00;3.25;2.00
76049;PMS7003;64967;50.234;19.224;2023-02-22T16:23:50;2.75;2.75;2.00
76049;PMS7003;64967;50.234;19.224;2023-02-22T16:26:28;3.00;3.00;3.00
76049;PMS7003;64967;50.234;19.224;2023-02-22T16:28:57;2.50;1.00;0.75
76049;PMS7003;64967;50.234;19.224;2023-02-22T16:31:30;4.00;2.75;2.75
76049;PMS7003;64967;50.234;19.224;2023-02-22T16:34:03;8.00;6.00;4.00
76049;PMS7003;64967;50.234;19.224;2023-02-22T16:36:42;9.00;7.00;6.00
76049;PMS7003;64967;50.234;19.224;2023-02-22T16:41:53;6.75;6.00;4.25
76049;PMS7003;64967;50.234;19.224;2023-02-22T17:37:22;26.25;19.75;14.00
76049;PMS7003;64967;50.234;19.224;2023-02-22T17:40:06;17.50;14.75;11.75
76049;PMS7003;64967;50.234;19.224;2023-02-22T17:42:49;15.75;12.25;8.50
76049;PMS7003;64967;50.234;19.224;2023-02-22T17:45:27;12.00;11.50;7.75
76049;PMS7003;64967;50.234;19.224;2023-02-22T17:49:15;14.25;11.00;7.00
76049;PMS7003;64967;50.234;19.224;2023-02-22T17:51:59;12.50;9.75;6.75
76049;PMS7003;64967;50.234;19.224;2023-02-22T17:55:27;9.25;8.50;5.75
76049;PMS7003;64967;50.234;19.224;2023-02-22T17:58:43;10.75;10.75;8.50
76049;PMS7003;64967;50.234;19.224;2023-02-22T18:01:32;19.00;16.50;11.25
76049;PMS7003;64967;50.234;19.224;2023-02-22T18:04:31;27.00;20.00;14.25
76049;PMS7003;64967;50.234;19.224;2023-02-22T18:07:50;30.25;24.25;15.00